Assesse, Belgium
Current Conditions -  °F | °C
As of 8:40 AM on Thursday 23 Oct 2014 (Local Time) from EBFS Reporting Station
Drizzle Drizzle  
Wind Chill: 42°   Ceiling: 2000
Heat Index: 45°   Visibility: 2.8mi
Dew Point: 45°   Wind: 5mph
Humidity: 100%   Direction: 230°SW
Pressure: 30.24"   Gusts: NA
Location:  50.37°N, 5.02°E
Report Text: EBFS 230640Z 23004KT 4500 -DZ FEW011 SCT014 BKN020 07/07 Q1024 GRN GRN TEMPO YLO
Loading
Personal Weather Stations






























Interactive Weather Map
Tropical Storm Tracking
New forecast layout! Learn more

10-Day Weather Forecast

Advertisements
Track Severe Weather on mobile